sensor_id;sensor_type;location;lat;lon;timestamp;P1;durP1;ratioP1;P2;durP2;ratioP2
25319;SDS011;13256;49.012;8.610;2022-08-30T00:02:26;11.43;;;3.85;;
25319;SDS011;13256;49.012;8.610;2022-08-30T00:04:52;5.32;;;3.08;;
25319;SDS011;13256;49.012;8.610;2022-08-30T00:07:21;5.32;;;3.35;;
25319;SDS011;13256;49.012;8.610;2022-08-30T00:09:48;4.78;;;3.05;;
25319;SDS011;13256;49.012;8.610;2022-08-30T00:12:17;6.35;;;3.33;;
25319;SDS011;13256;49.012;8.610;2022-08-30T00:14:46;4.22;;;3.30;;
25319;SDS011;13256;49.012;8.610;2022-08-30T00:17:15;6.70;;;3.10;;
25319;SDS011;13256;49.012;8.610;2022-08-30T00:19:47;6.97;;;3.05;;
25319;SDS011;13256;49.012;8.610;2022-08-30T00:22:17;4.93;;;3.30;;
25319;SDS011;13256;49.012;8.610;2022-08-30T00:24:44;5.72;;;2.97;;
25319;SDS011;13256;49.012;8.610;2022-08-30T00:27:11;3.90;;;2.95;;
25319;SDS011;13256;49.012;8.610;2022-08-30T00:29:40;8.98;;;3.30;;
25319;SDS011;13256;49.012;8.610;2022-08-30T00:32:12;5.10;;;2.85;;
25319;SDS011;13256;49.012;8.610;2022-08-30T00:34:44;8.35;;;3.20;;
25319;SDS011;13256;49.012;8.610;2022-08-30T00:42:54;7.32;;;2.95;;
25319;SDS011;13256;49.012;8.610;2022-08-30T00:45:28;6.13;;;3.05;;
25319;SDS011;13256;49.012;8.610;2022-08-30T00:47:57;4.93;;;2.75;;
25319;SDS011;13256;49.012;8.610;2022-08-30T00:50:32;8.00;;;3.05;;
25319;SDS011;13256;49.012;8.610;2022-08-30T00:53:05;9.23;;;3.75;;
25319;SDS011;13256;49.012;8.610;2022-08-30T00:55:34;5.35;;;3.13;;
25319;SDS011;13256;49.012;8.610;2022-08-30T00:58:06;6.13;;;2.78;;
25319;SDS011;13256;49.012;8.610;2022-08-30T01:00:44;4.68;;;2.35;;
25319;SDS011;13256;49.012;8.610;2022-08-30T01:03:11;8.25;;;2.92;;
25319;SDS011;13256;49.012;8.610;2022-08-30T01:05:40;8.50;;;3.00;;
25319;SDS011;13256;49.012;8.610;2022-08-30T01:08:10;6.20;;;2.65;;
25319;SDS011;13256;49.012;8.610;2022-08-30T01:10:37;4.35;;;2.47;;
25319;SDS011;13256;49.012;8.610;2022-08-30T01:13:04;7.40;;;2.78;;
25319;SDS011;13256;49.012;8.610;2022-08-30T01:15:31;4.72;;;2.97;;
25319;SDS011;13256;49.012;8.610;2022-08-30T01:18:03;6.70;;;2.58;;
25319;SDS011;13256;49.012;8.610;2022-08-30T01:20:37;4.95;;;2.40;;
25319;SDS011;13256;49.012;8.610;2022-08-30T01:23:18;6.97;;;3.38;;
25319;SDS011;13256;49.012;8.610;2022-08-30T01:25:47;6.78;;;2.50;;
25319;SDS011;13256;49.012;8.610;2022-08-30T01:30:48;6.57;;;3.10;;
25319;SDS011;13256;49.012;8.610;2022-08-30T01:33:16;8.02;;;2.90;;
25319;SDS011;13256;49.012;8.610;2022-08-30T01:38:48;7.50;;;2.92;;
25319;SDS011;13256;49.012;8.610;2022-08-30T01:41:24;11.48;;;3.13;;
25319;SDS011;13256;49.012;8.610;2022-08-30T01:44:12;4.13;;;3.05;;
25319;SDS011;13256;49.012;8.610;2022-08-30T01:46:42;10.48;;;3.25;;
25319;SDS011;13256;49.012;8.610;2022-08-30T01:49:14;6.57;;;2.75;;
25319;SDS011;13256;49.012;8.610;2022-08-30T01:51:45;4.97;;;3.03;;
25319;SDS011;13256;49.012;8.610;2022-08-30T01:54:11;5.03;;;2.78;;
25319;SDS011;13256;49.012;8.610;2022-08-30T01:56:39;5.63;;;2.90;;
25319;SDS011;13256;49.012;8.610;2022-08-30T01:59:11;6.32;;;2.90;;
25319;SDS011;13256;49.012;8.610;2022-08-30T02:04:35;5.18;;;2.80;;
25319;SDS011;13256;49.012;8.610;2022-08-30T02:07:03;9.05;;;2.88;;
25319;SDS011;13256;49.012;8.610;2022-08-30T02:09:30;6.65;;;3.03;;
25319;SDS011;13256;49.012;8.610;2022-08-30T02:11:59;4.63;;;2.92;;
25319;SDS011;13256;49.012;8.610;2022-08-30T02:14:27;4.25;;;2.88;;
25319;SDS011;13256;49.012;8.610;2022-08-30T02:16:55;6.30;;;2.78;;
25319;SDS011;13256;49.012;8.610;2022-08-30T02:19:22;5.30;;;3.10;;
25319;SDS011;13256;49.012;8.610;2022-08-30T02:21:52;5.55;;;3.38;;
25319;SDS011;13256;49.012;8.610;2022-08-30T02:24:20;5.47;;;2.90;;
25319;SDS011;13256;49.012;8.610;2022-08-30T02:26:49;6.13;;;3.10;;
25319;SDS011;13256;49.012;8.610;2022-08-30T02:29:19;8.32;;;2.90;;
25319;SDS011;13256;49.012;8.610;2022-08-30T02:31:49;7.43;;;3.20;;
25319;SDS011;13256;49.012;8.610;2022-08-30T02:34:20;6.38;;;3.05;;
25319;SDS011;13256;49.012;8.610;2022-08-30T02:36:52;8.13;;;2.95;;
25319;SDS011;13256;49.012;8.610;2022-08-30T02:39:18;5.95;;;3.42;;
25319;SDS011;13256;49.012;8.610;2022-08-30T02:41:52;10.18;;;2.97;;
25319;SDS011;13256;49.012;8.610;2022-08-30T02:44:29;4.30;;;3.00;;
25319;SDS011;13256;49.012;8.610;2022-08-30T02:46:56;5.63;;;3.33;;
25319;SDS011;13256;49.012;8.610;2022-08-30T02:55:44;5.35;;;3.50;;
25319;SDS011;13256;49.012;8.610;2022-08-30T03:11:08;6.18;;;3.42;;
25319;SDS011;13256;49.012;8.610;2022-08-30T03:13:39;10.60;;;3.15;;
25319;SDS011;13256;49.012;8.610;2022-08-30T03:16:06;5.18;;;2.78;;
25319;SDS011;13256;49.012;8.610;2022-08-30T03:18:37;5.65;;;3.25;;
25319;SDS011;13256;49.012;8.610;2022-08-30T03:21:12;7.18;;;2.97;;
25319;SDS011;13256;49.012;8.610;2022-08-30T03:23:40;8.68;;;3.35;;
25319;SDS011;13256;49.012;8.610;2022-08-30T03:26:11;7.28;;;3.30;;
25319;SDS011;13256;49.012;8.610;2022-08-30T03:28:41;4.80;;;3.40;;
25319;SDS011;13256;49.012;8.610;2022-08-30T03:31:09;7.18;;;3.80;;
25319;SDS011;13256;49.012;8.610;2022-08-30T03:33:36;5.57;;;3.50;;
25319;SDS011;13256;49.012;8.610;2022-08-30T03:36:09;7.50;;;3.97;;
25319;SDS011;13256;49.012;8.610;2022-08-30T03:38:38;7.75;;;3.70;;
25319;SDS011;13256;49.012;8.610;2022-08-30T03:41:05;8.15;;;3.50;;
25319;SDS011;13256;49.012;8.610;2022-08-30T03:43:35;6.03;;;3.88;;
25319;SDS011;13256;49.012;8.610;2022-08-30T03:46:15;8.57;;;3.83;;
25319;SDS011;13256;49.012;8.610;2022-08-30T03:48:41;7.25;;;3.92;;
25319;SDS011;13256;49.012;8.610;2022-08-30T03:51:13;7.53;;;3.72;;
25319;SDS011;13256;49.012;8.610;2022-08-30T03:53:39;7.45;;;4.07;;
25319;SDS011;13256;49.012;8.610;2022-08-30T03:56:09;10.07;;;3.95;;
25319;SDS011;13256;49.012;8.610;2022-08-30T03:58:39;6.50;;;3.70;;
25319;SDS011;13256;49.012;8.610;2022-08-30T04:01:06;7.43;;;4.90;;
25319;SDS011;13256;49.012;8.610;2022-08-30T04:03:36;5.97;;;3.58;;
25319;SDS011;13256;49.012;8.610;2022-08-30T04:06:03;6.63;;;3.50;;
25319;SDS011;13256;49.012;8.610;2022-08-30T04:08:34;7.93;;;4.03;;
25319;SDS011;13256;49.012;8.610;2022-08-30T04:11:01;8.93;;;3.55;;
25319;SDS011;13256;49.012;8.610;2022-08-30T04:13:34;9.10;;;3.90;;
25319;SDS011;13256;49.012;8.610;2022-08-30T04:16:02;11.98;;;4.35;;
25319;SDS011;13256;49.012;8.610;2022-08-30T04:18:29;8.55;;;4.50;;
25319;SDS011;13256;49.012;8.610;2022-08-30T04:23:47;10.77;;;4.00;;
25319;SDS011;13256;49.012;8.610;2022-08-30T04:26:15;9.75;;;4.20;;
25319;SDS011;13256;49.012;8.610;2022-08-30T04:31:13;9.88;;;4.82;;
25319;SDS011;13256;49.012;8.610;2022-08-30T04:42:18;9.40;;;4.35;;
25319;SDS011;13256;49.012;8.610;2022-08-30T04:44:51;15.02;;;4.50;;
25319;SDS011;13256;49.012;8.610;2022-08-30T04:47:25;11.85;;;4.57;;
25319;SDS011;13256;49.012;8.610;2022-08-30T04:49:53;8.70;;;3.97;;
25319;SDS011;13256;49.012;8.610;2022-08-30T04:52:20;7.35;;;4.28;;
25319;SDS011;13256;49.012;8.610;2022-08-30T04:54:53;7.00;;;3.92;;
25319;SDS011;13256;49.012;8.610;2022-08-30T04:57:22;6.93;;;4.07;;
25319;SDS011;13256;49.012;8.610;2022-08-30T04:59:53;8.73;;;4.40;;
25319;SDS011;13256;49.012;8.610;2022-08-30T05:02:27;8.77;;;4.90;;
25319;SDS011;13256;49.012;8.610;2022-08-30T05:08:05;8.80;;;4.32;;
25319;SDS011;13256;49.012;8.610;2022-08-30T05:10:38;7.45;;;4.93;;
25319;SDS011;13256;49.012;8.610;2022-08-30T05:13:06;10.50;;;5.30;;
25319;SDS011;13256;49.012;8.610;2022-08-30T05:18:27;15.63;;;5.35;;
25319;SDS011;13256;49.012;8.610;2022-08-30T05:21:12;8.98;;;4.35;;
25319;SDS011;13256;49.012;8.610;2022-08-30T05:26:16;11.23;;;5.30;;
25319;SDS011;13256;49.012;8.610;2022-08-30T05:28:53;10.13;;;4.30;;
25319;SDS011;13256;49.012;8.610;2022-08-30T05:31:25;10.30;;;4.57;;
25319;SDS011;13256;49.012;8.610;2022-08-30T05:33:55;8.27;;;4.45;;
25319;SDS011;13256;49.012;8.610;2022-08-30T05:36:25;10.63;;;4.40;;
25319;SDS011;13256;49.012;8.610;2022-08-30T05:38:55;13.50;;;4.37;;
25319;SDS011;13256;49.012;8.610;2022-08-30T05:41:25;9.60;;;4.50;;
25319;SDS011;13256;49.012;8.610;2022-08-30T05:43:55;13.65;;;4.78;;
25319;SDS011;13256;49.012;8.610;2022-08-30T05:46:29;7.18;;;3.97;;
25319;SDS011;13256;49.012;8.610;2022-08-30T05:49:04;11.02;;;4.32;;
25319;SDS011;13256;49.012;8.610;2022-08-30T05:51:37;11.40;;;4.35;;
25319;SDS011;13256;49.012;8.610;2022-08-30T05:54:10;10.63;;;4.05;;
25319;SDS011;13256;49.012;8.610;2022-08-30T05:56:40;11.35;;;4.25;;
25319;SDS011;13256;49.012;8.610;2022-08-30T05:59:14;9.70;;;4.38;;
25319;SDS011;13256;49.012;8.610;2022-08-30T06:01:42;11.13;;;4.43;;
25319;SDS011;13256;49.012;8.610;2022-08-30T06:04:12;10.45;;;4.53;;
25319;SDS011;13256;49.012;8.610;2022-08-30T06:06:46;8.57;;;4.35;;
25319;SDS011;13256;49.012;8.610;2022-08-30T06:09:15;18.05;;;5.35;;
25319;SDS011;13256;49.012;8.610;2022-08-30T06:11:46;10.90;;;4.57;;
25319;SDS011;13256;49.012;8.610;2022-08-30T06:14:13;17.48;;;4.82;;
25319;SDS011;13256;49.012;8.610;2022-08-30T06:16:44;10.93;;;4.15;;
25319;SDS011;13256;49.012;8.610;2022-08-30T06:19:17;6.78;;;4.18;;
25319;SDS011;13256;49.012;8.610;2022-08-30T06:21:51;8.38;;;4.18;;
25319;SDS011;13256;49.012;8.610;2022-08-30T06:24:18;10.35;;;4.97;;
25319;SDS011;13256;49.012;8.610;2022-08-30T06:27:16;8.80;;;4.40;;
25319;SDS011;13256;49.012;8.610;2022-08-30T06:29:51;13.68;;;5.68;;
25319;SDS011;13256;49.012;8.610;2022-08-30T06:32:37;13.90;;;5.05;;
25319;SDS011;13256;49.012;8.610;2022-08-30T06:35:07;9.95;;;4.70;;
25319;SDS011;13256;49.012;8.610;2022-08-30T06:38:02;14.30;;;4.70;;
25319;SDS011;13256;49.012;8.610;2022-08-30T06:40:36;7.55;;;4.13;;
25319;SDS011;13256;49.012;8.610;2022-08-30T06:43:06;11.38;;;4.25;;
25319;SDS011;13256;49.012;8.610;2022-08-30T06:45:36;12.93;;;3.92;;
25319;SDS011;13256;49.012;8.610;2022-08-30T06:48:02;13.90;;;4.15;;
25319;SDS011;13256;49.012;8.610;2022-08-30T06:50:29;9.88;;;4.30;;
25319;SDS011;13256;49.012;8.610;2022-08-30T06:53:03;12.40;;;4.47;;
25319;SDS011;13256;49.012;8.610;2022-08-30T06:55:34;9.10;;;4.05;;
25319;SDS011;13256;49.012;8.610;2022-08-30T06:58:01;13.15;;;4.05;;
25319;SDS011;13256;49.012;8.610;2022-08-30T07:00:35;8.80;;;4.22;;
25319;SDS011;13256;49.012;8.610;2022-08-30T07:03:02;9.00;;;4.25;;
25319;SDS011;13256;49.012;8.610;2022-08-30T07:08:28;9.07;;;4.63;;
25319;SDS011;13256;49.012;8.610;2022-08-30T07:10:58;8.67;;;4.20;;
25319;SDS011;13256;49.012;8.610;2022-08-30T07:13:25;9.18;;;3.80;;
25319;SDS011;13256;49.012;8.610;2022-08-30T07:15:54;14.15;;;4.10;;
25319;SDS011;13256;49.012;8.610;2022-08-30T07:18:24;10.25;;;4.35;;
25319;SDS011;13256;49.012;8.610;2022-08-30T07:21:17;6.97;;;3.90;;
25319;SDS011;13256;49.012;8.610;2022-08-30T07:23:48;10.13;;;4.20;;
25319;SDS011;13256;49.012;8.610;2022-08-30T07:26:28;10.38;;;4.07;;
25319;SDS011;13256;49.012;8.610;2022-08-30T07:29:00;12.63;;;4.55;;
25319;SDS011;13256;49.012;8.610;2022-08-30T07:31:30;9.65;;;4.18;;
25319;SDS011;13256;49.012;8.610;2022-08-30T07:34:03;6.90;;;4.03;;
25319;SDS011;13256;49.012;8.610;2022-08-30T07:39:31;9.90;;;4.22;;
25319;SDS011;13256;49.012;8.610;2022-08-30T07:42:03;11.13;;;5.00;;
25319;SDS011;13256;49.012;8.610;2022-08-30T07:44:34;9.55;;;4.20;;
25319;SDS011;13256;49.012;8.610;2022-08-30T07:47:02;7.82;;;4.00;;
25319;SDS011;13256;49.012;8.610;2022-08-30T07:52:25;8.07;;;4.10;;
25319;SDS011;13256;49.012;8.610;2022-08-30T07:55:03;9.10;;;4.25;;
25319;SDS011;13256;49.012;8.610;2022-08-30T07:57:31;8.85;;;4.57;;
25319;SDS011;13256;49.012;8.610;2022-08-30T08:00:00;7.97;;;4.30;;
25319;SDS011;13256;49.012;8.610;2022-08-30T08:02:40;13.48;;;4.20;;
25319;SDS011;13256;49.012;8.610;2022-08-30T08:05:07;15.02;;;4.63;;
25319;SDS011;13256;49.012;8.610;2022-08-30T08:07:44;12.40;;;4.72;;
25319;SDS011;13256;49.012;8.610;2022-08-30T08:10:11;8.23;;;4.32;;
25319;SDS011;13256;49.012;8.610;2022-08-30T08:12:44;8.65;;;4.40;;
25319;SDS011;13256;49.012;8.610;2022-08-30T08:15:12;10.23;;;4.50;;
25319;SDS011;13256;49.012;8.610;2022-08-30T08:17:42;7.22;;;3.97;;
25319;SDS011;13256;49.012;8.610;2022-08-30T08:20:11;8.98;;;4.45;;
25319;SDS011;13256;49.012;8.610;2022-08-30T08:22:38;10.80;;;4.40;;
25319;SDS011;13256;49.012;8.610;2022-08-30T08:25:06;6.97;;;4.20;;
25319;SDS011;13256;49.012;8.610;2022-08-30T08:27:34;10.68;;;3.95;;
25319;SDS011;13256;49.012;8.610;2022-08-30T08:30:06;11.15;;;4.38;;
25319;SDS011;13256;49.012;8.610;2022-08-30T08:32:38;8.27;;;4.68;;
25319;SDS011;13256;49.012;8.610;2022-08-30T08:35:11;7.72;;;3.92;;
25319;SDS011;13256;49.012;8.610;2022-08-30T08:37:39;13.52;;;4.40;;
25319;SDS011;13256;49.012;8.610;2022-08-30T08:40:14;5.85;;;4.18;;
25319;SDS011;13256;49.012;8.610;2022-08-30T08:51:31;7.30;;;3.90;;
25319;SDS011;13256;49.012;8.610;2022-08-30T08:57:34;8.20;;;4.38;;
25319;SDS011;13256;49.012;8.610;2022-08-30T09:00:07;7.95;;;3.90;;
25319;SDS011;13256;49.012;8.610;2022-08-30T09:03:06;10.50;;;4.50;;
25319;SDS011;13256;49.012;8.610;2022-08-30T09:05:48;9.32;;;4.45;;
25319;SDS011;13256;49.012;8.610;2022-08-30T09:08:18;7.80;;;4.22;;
25319;SDS011;13256;49.012;8.610;2022-08-30T09:10:59;8.55;;;4.60;;
25319;SDS011;13256;49.012;8.610;2022-08-30T09:13:30;6.25;;;4.57;;
25319;SDS011;13256;49.012;8.610;2022-08-30T09:16:03;6.50;;;4.70;;
25319;SDS011;13256;49.012;8.610;2022-08-30T09:18:44;9.07;;;4.25;;
25319;SDS011;13256;49.012;8.610;2022-08-30T09:21:27;5.80;;;4.18;;
25319;SDS011;13256;49.012;8.610;2022-08-30T09:23:56;8.70;;;4.72;;
25319;SDS011;13256;49.012;8.610;2022-08-30T09:26:32;9.52;;;4.55;;
25319;SDS011;13256;49.012;8.610;2022-08-30T09:29:03;10.52;;;4.53;;
25319;SDS011;13256;49.012;8.610;2022-08-30T09:38:15;11.00;;;4.68;;
25319;SDS011;13256;49.012;8.610;2022-08-30T09:43:25;6.20;;;4.53;;
25319;SDS011;13256;49.012;8.610;2022-08-30T09:48:42;5.47;;;4.53;;
25319;SDS011;13256;49.012;8.610;2022-08-30T09:51:18;7.00;;;3.92;;
25319;SDS011;13256;49.012;8.610;2022-08-30T09:54:18;8.27;;;4.10;;
25319;SDS011;13256;49.012;8.610;2022-08-30T10:11:35;8.32;;;4.38;;
25319;SDS011;13256;49.012;8.610;2022-08-30T10:20:00;5.82;;;4.10;;
25319;SDS011;13256;49.012;8.610;2022-08-30T10:23:12;7.95;;;4.20;;
25319;SDS011;13256;49.012;8.610;2022-08-30T10:25:54;5.55;;;3.95;;
25319;SDS011;13256;49.012;8.610;2022-08-30T10:28:35;8.43;;;4.43;;
25319;SDS011;13256;49.012;8.610;2022-08-30T10:31:59;7.43;;;4.00;;
25319;SDS011;13256;49.012;8.610;2022-08-30T10:37:07;6.53;;;4.25;;
25319;SDS011;13256;49.012;8.610;2022-08-30T10:39:42;6.03;;;4.00;;
25319;SDS011;13256;49.012;8.610;2022-08-30T10:42:25;7.38;;;4.05;;
25319;SDS011;13256;49.012;8.610;2022-08-30T10:45:12;6.47;;;3.75;;
25319;SDS011;13256;49.012;8.610;2022-08-30T10:54:07;5.65;;;4.00;;
25319;SDS011;13256;49.012;8.610;2022-08-30T10:56:39;8.80;;;4.20;;
25319;SDS011;13256;49.012;8.610;2022-08-30T10:59:18;7.40;;;4.13;;
25319;SDS011;13256;49.012;8.610;2022-08-30T11:07:46;7.95;;;3.97;;
25319;SDS011;13256;49.012;8.610;2022-08-30T11:18:46;11.23;;;3.88;;
25319;SDS011;13256;49.012;8.610;2022-08-30T11:32:22;7.43;;;4.22;;
25319;SDS011;13256;49.012;8.610;2022-08-30T11:42:48;8.77;;;4.18;;
25319;SDS011;13256;49.012;8.610;2022-08-30T11:57:09;6.70;;;3.67;;
25319;SDS011;13256;49.012;8.610;2022-08-30T12:05:05;7.60;;;4.05;;
25319;SDS011;13256;49.012;8.610;2022-08-30T12:10:44;8.07;;;4.40;;
25319;SDS011;13256;49.012;8.610;2022-08-30T12:16:19;12.18;;;4.10;;
25319;SDS011;13256;49.012;8.610;2022-08-30T12:19:13;9.52;;;4.72;;
25319;SDS011;13256;49.012;8.610;2022-08-30T12:22:02;10.52;;;4.10;;
25319;SDS011;13256;49.012;8.610;2022-08-30T12:24:45;7.28;;;4.28;;
25319;SDS011;13256;49.012;8.610;2022-08-30T12:30:06;10.38;;;3.78;;
25319;SDS011;13256;49.012;8.610;2022-08-30T12:32:42;7.68;;;4.20;;
25319;SDS011;13256;49.012;8.610;2022-08-30T12:35:21;6.93;;;4.25;;
25319;SDS011;13256;49.012;8.610;2022-08-30T12:37:57;13.02;;;4.28;;
25319;SDS011;13256;49.012;8.610;2022-08-30T12:43:47;6.28;;;3.92;;
25319;SDS011;13256;49.012;8.610;2022-08-30T12:46:17;10.43;;;4.78;;
25319;SDS011;13256;49.012;8.610;2022-08-30T12:48:48;11.82;;;4.40;;
25319;SDS011;13256;49.012;8.610;2022-08-30T12:51:33;4.65;;;4.05;;
25319;SDS011;13256;49.012;8.610;2022-08-30T12:54:21;7.13;;;3.72;;
25319;SDS011;13256;49.012;8.610;2022-08-30T12:57:03;9.50;;;4.20;;
25319;SDS011;13256;49.012;8.610;2022-08-30T13:00:28;7.47;;;3.95;;
25319;SDS011;13256;49.012;8.610;2022-08-30T13:03:33;10.75;;;4.20;;
25319;SDS011;13256;49.012;8.610;2022-08-30T13:06:14;8.35;;;4.15;;
25319;SDS011;13256;49.012;8.610;2022-08-30T13:09:58;6.68;;;4.07;;
25319;SDS011;13256;49.012;8.610;2022-08-30T13:12:08;8.50;;;4.35;;
25319;SDS011;13256;49.012;8.610;2022-08-30T13:14:49;7.70;;;3.85;;
25319;SDS011;13256;49.012;8.610;2022-08-30T13:17:24;12.10;;;4.20;;
25319;SDS011;13256;49.012;8.610;2022-08-30T13:20:01;9.27;;;4.00;;
25319;SDS011;13256;49.012;8.610;2022-08-30T13:22:39;10.55;;;4.25;;
25319;SDS011;13256;49.012;8.610;2022-08-30T13:25:11;7.45;;;4.20;;
25319;SDS011;13256;49.012;8.610;2022-08-30T13:27:43;6.70;;;4.00;;
25319;SDS011;13256;49.012;8.610;2022-08-30T13:30:18;11.52;;;4.05;;
25319;SDS011;13256;49.012;8.610;2022-08-30T13:32:51;8.63;;;3.83;;
25319;SDS011;13256;49.012;8.610;2022-08-30T13:41:28;9.57;;;4.15;;
25319;SDS011;13256;49.012;8.610;2022-08-30T13:44:03;15.90;;;5.07;;
25319;SDS011;13256;49.012;8.610;2022-08-30T13:50:36;10.05;;;3.88;;
25319;SDS011;13256;49.012;8.610;2022-08-30T13:55:49;13.70;;;3.97;;
25319;SDS011;13256;49.012;8.610;2022-08-30T13:58:17;9.23;;;4.03;;
25319;SDS011;13256;49.012;8.610;2022-08-30T14:00:48;5.65;;;3.80;;
25319;SDS011;13256;49.012;8.610;2022-08-30T14:03:19;8.93;;;4.03;;
25319;SDS011;13256;49.012;8.610;2022-08-30T14:05:46;7.38;;;3.75;;
25319;SDS011;13256;49.012;8.610;2022-08-30T14:08:21;9.90;;;3.58;;
25319;SDS011;13256;49.012;8.610;2022-08-30T14:13:41;8.98;;;4.07;;
25319;SDS011;13256;49.012;8.610;2022-08-30T14:16:33;8.48;;;4.03;;
25319;SDS011;13256;49.012;8.610;2022-08-30T14:22:01;8.10;;;3.70;;
25319;SDS011;13256;49.012;8.610;2022-08-30T14:24:36;8.15;;;3.85;;
25319;SDS011;13256;49.012;8.610;2022-08-30T14:27:03;5.22;;;3.70;;
25319;SDS011;13256;49.012;8.610;2022-08-30T14:29:31;9.30;;;3.75;;
25319;SDS011;13256;49.012;8.610;2022-08-30T14:31:58;5.45;;;3.80;;
25319;SDS011;13256;49.012;8.610;2022-08-30T14:46:40;10.90;;;4.03;;
25319;SDS011;13256;49.012;8.610;2022-08-30T14:51:46;13.98;;;4.15;;
25319;SDS011;13256;49.012;8.610;2022-08-30T15:00:11;6.40;;;3.50;;
25319;SDS011;13256;49.012;8.610;2022-08-30T15:05:15;8.43;;;3.22;;
25319;SDS011;13256;49.012;8.610;2022-08-30T15:07:46;8.95;;;4.10;;
25319;SDS011;13256;49.012;8.610;2022-08-30T15:13:04;7.65;;;3.45;;
25319;SDS011;13256;49.012;8.610;2022-08-30T15:15:34;6.10;;;3.75;;
25319;SDS011;13256;49.012;8.610;2022-08-30T15:18:11;5.50;;;3.63;;
25319;SDS011;13256;49.012;8.610;2022-08-30T15:20:47;9.05;;;3.58;;
25319;SDS011;13256;49.012;8.610;2022-08-30T15:31:26;6.55;;;4.30;;
25319;SDS011;13256;49.012;8.610;2022-08-30T15:33:57;8.82;;;4.07;;
25319;SDS011;13256;49.012;8.610;2022-08-30T15:39:26;13.88;;;3.90;;
25319;SDS011;13256;49.012;8.610;2022-08-30T15:44:30;8.93;;;4.25;;
25319;SDS011;13256;49.012;8.610;2022-08-30T15:47:05;13.23;;;3.80;;
25319;SDS011;13256;49.012;8.610;2022-08-30T16:00:58;8.05;;;3.60;;
25319;SDS011;13256;49.012;8.610;2022-08-30T16:03:31;5.45;;;3.50;;
25319;SDS011;13256;49.012;8.610;2022-08-30T16:14:24;5.40;;;3.67;;
25319;SDS011;13256;49.012;8.610;2022-08-30T16:16:52;8.02;;;4.20;;
25319;SDS011;13256;49.012;8.610;2022-08-30T16:19:22;5.97;;;3.50;;
25319;SDS011;13256;49.012;8.610;2022-08-30T16:21:52;4.85;;;3.58;;
25319;SDS011;13256;49.012;8.610;2022-08-30T16:24:29;10.82;;;3.85;;
25319;SDS011;13256;49.012;8.610;2022-08-30T16:26:57;6.50;;;3.28;;
25319;SDS011;13256;49.012;8.610;2022-08-30T16:29:24;8.15;;;3.97;;
25319;SDS011;13256;49.012;8.610;2022-08-30T16:31:57;5.67;;;3.60;;
25319;SDS011;13256;49.012;8.610;2022-08-30T16:37:07;6.10;;;3.63;;
25319;SDS011;13256;49.012;8.610;2022-08-30T16:39:37;7.47;;;3.80;;
25319;SDS011;13256;49.012;8.610;2022-08-30T16:42:07;5.50;;;3.47;;
25319;SDS011;13256;49.012;8.610;2022-08-30T16:44:52;6.90;;;3.97;;
25319;SDS011;13256;49.012;8.610;2022-08-30T16:50:13;6.97;;;3.40;;
25319;SDS011;13256;49.012;8.610;2022-08-30T16:52:46;4.97;;;3.80;;
25319;SDS011;13256;49.012;8.610;2022-08-30T16:55:13;6.40;;;3.72;;
25319;SDS011;13256;49.012;8.610;2022-08-30T17:09:50;7.18;;;3.53;;
25319;SDS011;13256;49.012;8.610;2022-08-30T17:12:20;10.85;;;3.30;;
25319;SDS011;13256;49.012;8.610;2022-08-30T17:23:46;7.45;;;3.65;;
25319;SDS011;13256;49.012;8.610;2022-08-30T17:41:35;7.28;;;3.67;;
25319;SDS011;13256;49.012;8.610;2022-08-30T17:53:29;8.30;;;3.90;;
25319;SDS011;13256;49.012;8.610;2022-08-30T17:56:07;7.28;;;3.33;;
25319;SDS011;13256;49.012;8.610;2022-08-30T17:59:12;5.55;;;3.47;;
25319;SDS011;13256;49.012;8.610;2022-08-30T18:04:56;6.28;;;3.60;;
25319;SDS011;13256;49.012;8.610;2022-08-30T18:10:49;10.38;;;3.58;;
25319;SDS011;13256;49.012;8.610;2022-08-30T18:16:47;5.18;;;3.40;;
25319;SDS011;13256;49.012;8.610;2022-08-30T18:22:18;7.70;;;3.72;;
25319;SDS011;13256;49.012;8.610;2022-08-30T18:24:48;7.68;;;4.07;;
25319;SDS011;13256;49.012;8.610;2022-08-30T18:33:30;15.02;;;4.00;;
25319;SDS011;13256;49.012;8.610;2022-08-30T18:44:29;5.57;;;3.72;;
25319;SDS011;13256;49.012;8.610;2022-08-30T18:49:47;9.82;;;4.30;;
25319;SDS011;13256;49.012;8.610;2022-08-30T18:55:22;7.13;;;4.20;;
25319;SDS011;13256;49.012;8.610;2022-08-30T19:12:24;9.60;;;4.10;;
25319;SDS011;13256;49.012;8.610;2022-08-30T19:23:27;9.52;;;4.53;;
25319;SDS011;13256;49.012;8.610;2022-08-30T19:26:00;6.47;;;4.10;;
25319;SDS011;13256;49.012;8.610;2022-08-30T19:28:27;9.95;;;4.38;;
25319;SDS011;13256;49.012;8.610;2022-08-30T19:30:59;9.35;;;4.35;;
25319;SDS011;13256;49.012;8.610;2022-08-30T19:35:59;6.70;;;3.85;;
25319;SDS011;13256;49.012;8.610;2022-08-30T19:38:31;6.57;;;4.03;;
25319;SDS011;13256;49.012;8.610;2022-08-30T19:41:05;6.80;;;4.57;;
25319;SDS011;13256;49.012;8.610;2022-08-30T19:43:35;9.45;;;4.78;;
25319;SDS011;13256;49.012;8.610;2022-08-30T19:46:03;13.18;;;4.70;;
25319;SDS011;13256;49.012;8.610;2022-08-30T19:48:36;5.82;;;4.43;;
25319;SDS011;13256;49.012;8.610;2022-08-30T19:51:10;7.22;;;4.65;;
25319;SDS011;13256;49.012;8.610;2022-08-30T19:53:39;4.90;;;4.10;;
25319;SDS011;13256;49.012;8.610;2022-08-30T19:56:09;8.82;;;4.63;;
25319;SDS011;13256;49.012;8.610;2022-08-30T19:58:48;8.02;;;4.82;;
25319;SDS011;13256;49.012;8.610;2022-08-30T20:01:16;8.77;;;4.65;;
25319;SDS011;13256;49.012;8.610;2022-08-30T20:03:59;9.63;;;4.90;;
25319;SDS011;13256;49.012;8.610;2022-08-30T20:06:27;7.40;;;4.10;;
25319;SDS011;13256;49.012;8.610;2022-08-30T20:08:54;7.68;;;4.15;;
25319;SDS011;13256;49.012;8.610;2022-08-30T20:11:29;8.43;;;4.20;;
25319;SDS011;13256;49.012;8.610;2022-08-30T20:14:01;7.72;;;4.13;;
25319;SDS011;13256;49.012;8.610;2022-08-30T20:16:28;8.63;;;4.40;;
25319;SDS011;13256;49.012;8.610;2022-08-30T20:19:08;5.57;;;4.28;;
25319;SDS011;13256;49.012;8.610;2022-08-30T20:21:36;9.43;;;4.90;;
25319;SDS011;13256;49.012;8.610;2022-08-30T20:24:05;8.40;;;4.78;;
25319;SDS011;13256;49.012;8.610;2022-08-30T20:26:56;6.57;;;4.68;;
25319;SDS011;13256;49.012;8.610;2022-08-30T20:29:27;6.20;;;4.07;;
25319;SDS011;13256;49.012;8.610;2022-08-30T20:31:55;6.30;;;3.80;;
25319;SDS011;13256;49.012;8.610;2022-08-30T20:34:27;10.05;;;4.70;;
25319;SDS011;13256;49.012;8.610;2022-08-30T20:46:21;8.30;;;4.80;;
25319;SDS011;13256;49.012;8.610;2022-08-30T20:48:49;12.15;;;4.63;;
25319;SDS011;13256;49.012;8.610;2022-08-30T20:51:20;6.25;;;4.43;;
25319;SDS011;13256;49.012;8.610;2022-08-30T20:56:58;6.97;;;4.30;;
25319;SDS011;13256;49.012;8.610;2022-08-30T20:59:25;6.25;;;3.90;;
25319;SDS011;13256;49.012;8.610;2022-08-30T21:02:10;9.60;;;4.25;;
25319;SDS011;13256;49.012;8.610;2022-08-30T21:04:40;7.18;;;3.92;;
25319;SDS011;13256;49.012;8.610;2022-08-30T21:07:07;7.95;;;4.55;;
25319;SDS011;13256;49.012;8.610;2022-08-30T21:09:34;7.18;;;4.20;;
25319;SDS011;13256;49.012;8.610;2022-08-30T21:12:02;10.43;;;4.20;;
25319;SDS011;13256;49.012;8.610;2022-08-30T21:14:33;15.38;;;4.80;;
25319;SDS011;13256;49.012;8.610;2022-08-30T21:17:01;7.43;;;4.05;;
25319;SDS011;13256;49.012;8.610;2022-08-30T21:19:27;6.38;;;4.40;;
25319;SDS011;13256;49.012;8.610;2022-08-30T21:21:54;9.15;;;4.85;;
25319;SDS011;13256;49.012;8.610;2022-08-30T21:24:24;9.88;;;4.50;;
25319;SDS011;13256;49.012;8.610;2022-08-30T21:26:51;7.18;;;4.40;;
25319;SDS011;13256;49.012;8.610;2022-08-30T21:29:20;9.00;;;3.60;;
25319;SDS011;13256;49.012;8.610;2022-08-30T21:31:51;8.77;;;4.22;;
25319;SDS011;13256;49.012;8.610;2022-08-30T21:34:20;9.82;;;4.57;;
25319;SDS011;13256;49.012;8.610;2022-08-30T21:36:47;6.55;;;4.25;;
25319;SDS011;13256;49.012;8.610;2022-08-30T21:39:21;8.63;;;4.22;;
25319;SDS011;13256;49.012;8.610;2022-08-30T21:41:49;9.52;;;4.55;;